Time;durP1;ratioP1;P1;durP2;ratioP2;P2;SDS_P1;SDS_P2;PMS_P1;PMS_P2;Temp;Humidity;BMP_temperature;BMP_pressure;BME280_temperature;BME280_humidity;BME280_pressure;Samples;Min_cycle;Max_cycle;Signal;HPM_P1;HPM_P2
2023/05/05 00:00:52;;;;;;;145.07;58.97;;;;;;;18.13;40.67;101842.78;5057350;28;20048;-71
2023/05/05 00:03:22;;;;;;;139.02;57.92;;;;;;;18.11;40.78;101848.13;5037666;28;20024;-72
2023/05/05 00:05:48;;;;;;;157.23;61.75;;;;;;;18.11;41.23;101839.34;5055752;28;20052;-71
2023/05/05 00:08:14;;;;;;;146.98;59.70;;;;;;;18.12;40.73;101843.69;5049879;28;20067;-71
2023/05/05 00:10:41;;;;;;;146.25;60.13;;;;;;;18.12;40.55;101841.03;5056000;28;20028;-71
2023/05/05 00:13:07;;;;;;;147.60;58.78;;;;;;;18.10;40.50;101830.50;5052839;28;20021;-71
2023/05/05 00:15:32;;;;;;;141.48;59.58;;;;;;;18.12;41.27;101833.09;5036580;28;20040;-71
2023/05/05 00:17:57;;;;;;;143.23;58.53;;;;;;;18.11;41.05;101836.69;5032676;28;20119;-71
2023/05/05 00:20:23;;;;;;;143.90;58.47;;;;;;;18.10;40.99;101834.94;5059890;28;20111;-71
2023/05/05 00:22:48;;;;;;;142.52;58.30;;;;;;;18.10;40.91;101829.66;5054575;28;20162;-71
2023/05/05 00:25:13;;;;;;;141.18;57.13;;;;;;;18.08;40.87;101822.63;5071176;28;20032;-72
2023/05/05 00:27:39;;;;;;;145.52;59.17;;;;;;;18.08;40.67;101825.28;5046856;28;20021;-72
2023/05/05 00:30:05;;;;;;;147.30;59.55;;;;;;;18.07;41.13;101820.91;5055409;28;20573;-72
2023/05/05 00:32:30;;;;;;;145.27;57.95;;;;;;;18.07;40.68;101820.03;5051530;28;20021;-71
2023/05/05 00:34:55;;;;;;;146.50;58.92;;;;;;;18.06;40.87;101819.19;5056921;28;20513;-70
2023/05/05 00:37:21;;;;;;;147.98;58.97;;;;;;;18.04;40.70;101812.22;5046154;28;20481;-72
2023/05/05 00:39:46;;;;;;;136.75;56.10;;;;;;;18.04;40.92;101805.13;5072460;28;20036;-72
2023/05/05 00:42:12;;;;;;;147.02;58.20;;;;;;;18.04;41.15;101810.41;5065524;28;20032;-72
2023/05/05 00:44:39;;;;;;;151.27;58.80;;;;;;;18.04;41.15;101801.63;5035415;28;20505;-70
2023/05/05 00:47:04;;;;;;;138.90;57.13;;;;;;;18.03;41.01;101808.69;5035656;28;20031;-71
2023/05/05 00:49:30;;;;;;;146.77;59.08;;;;;;;18.03;40.85;101798.09;5040326;28;20409;-71
2023/05/05 00:51:55;;;;;;;143.20;57.40;;;;;;;18.03;40.87;101802.53;5053634;28;20079;-72
2023/05/05 00:54:21;;;;;;;155.30;58.80;;;;;;;18.02;40.89;101801.66;5055210;28;20021;-72
2023/05/05 00:56:48;;;;;;;160.50;62.80;;;;;;;18.02;40.74;101806.09;5072531;22;20045;-70
2023/05/05 00:59:14;;;;;;;149.85;61.97;;;;;;;18.01;41.20;101809.63;5053954;28;20025;-71
2023/05/05 01:01:39;;;;;;;142.60;61.40;;;;;;;18.00;40.66;101798.19;5037419;28;20119;-71
2023/05/05 01:04:04;;;;;;;179.35;66.28;;;;;;;18.01;40.98;101805.22;5052224;28;20029;-71
2023/05/05 01:07:07;;;;;;;152.00;62.80;;;;;;;18.00;40.26;101798.19;5053330;28;20057;-70
2023/05/05 01:09:53;;;;;;;142.93;57.15;;;;;;;17.99;41.17;101804.41;5053469;28;20029;-71
2023/05/05 01:12:28;;;;;;;145.48;58.28;;;;;;;17.99;40.91;101799.09;5059961;28;20491;-71
2023/05/05 01:15:02;;;;;;;140.35;58.28;;;;;;;17.98;41.06;101794.72;5058875;28;20120;-72
2023/05/05 01:17:34;;;;;;;141.77;57.40;;;;;;;17.98;40.68;101796.50;5053863;28;20383;-72
2023/05/05 01:20:09;;;;;;;144.35;58.53;;;;;;;17.97;40.70;101790.38;5054050;28;20028;-71
2023/05/05 01:22:41;;;;;;;166.50;71.22;;;;;;;17.97;40.99;101781.56;5053363;28;20032;-73
2023/05/05 01:25:25;;;;;;;145.77;59.75;;;;;;;17.97;40.82;101792.13;5052580;28;20021;-71
2023/05/05 01:27:58;;;;;;;150.75;60.70;;;;;;;17.96;41.06;101793.91;5056956;28;20082;-72
2023/05/05 01:30:45;;;;;;;145.35;61.22;;;;;;;17.95;41.37;101788.69;5053216;28;20567;-71
2023/05/05 01:33:13;;;;;;;155.65;62.17;;;;;;;17.96;41.12;101785.13;5053859;28;20493;-69
2023/05/05 01:35:42;;;;;;;143.40;61.55;;;;;;;17.94;40.92;101787.81;5037157;28;20478;-71
2023/05/05 01:38:17;;;;;;;147.90;61.40;;;;;;;17.95;41.06;101789.53;5047387;28;20082;-71
2023/05/05 01:40:47;;;;;;;143.30;60.63;;;;;;;17.94;41.15;101782.50;5054469;28;20485;-70
2023/05/05 01:43:14;;;;;;;150.70;57.88;;;;;;;17.95;40.94;101784.25;5058328;28;20486;-71
2023/05/05 01:45:41;;;;;;;147.68;58.70;;;;;;;17.93;41.03;101780.81;5052868;28;20104;-71
2023/05/05 01:48:08;;;;;;;141.07;58.22;;;;;;;17.93;40.79;101780.81;5054027;28;20096;-71
2023/05/05 01:50:33;;;;;;;154.80;59.42;;;;;;;17.93;41.17;101775.53;5053751;28;20039;-71
2023/05/05 01:53:00;;;;;;;146.70;57.22;;;;;;;17.93;40.61;101770.22;5053639;28;20452;-71
2023/05/05 01:55:26;;;;;;;143.43;57.65;;;;;;;17.92;40.69;101767.63;5053345;28;20020;-71
2023/05/05 01:57:53;;;;;;;155.40;59.53;;;;;;;17.92;40.92;101763.22;5050586;28;20030;-70
2023/05/05 02:00:18;;;;;;;144.40;58.30;;;;;;;17.92;40.97;101768.50;5055085;28;20437;-71
2023/05/05 02:02:45;;;;;;;145.10;58.05;;;;;;;17.91;40.77;101766.72;5046906;28;20046;-71
2023/05/05 02:05:11;;;;;;;148.43;59.63;;;;;;;17.92;40.99;101763.22;5050437;28;20066;-71
2023/05/05 02:07:37;;;;;;;146.57;59.47;;;;;;;17.91;40.50;101758.78;5052709;28;20025;-72
2023/05/05 02:10:03;;;;;;;146.40;60.63;;;;;;;17.87;41.20;101749.22;5036217;28;20357;-71
2023/05/05 02:12:30;;;;;;;144.43;62.42;;;;;;;17.89;40.81;101750.06;5036022;28;20058;-71
2023/05/05 02:14:58;;;;;;;140.52;58.33;;;;;;;17.88;40.99;101756.25;5051811;28;20452;-71
2023/05/05 02:17:24;;;;;;;145.50;60.25;;;;;;;17.87;40.67;101759.78;5056645;28;20032;-71
2023/05/05 02:19:51;;;;;;;147.82;60.15;;;;;;;17.86;40.80;101755.41;5058183;28;20075;-71
2023/05/05 02:22:16;;;;;;;146.38;60.33;;;;;;;17.86;40.54;101758.06;5052891;28;20044;-71
2023/05/05 02:24:42;;;;;;;162.60;62.17;;;;;;;17.85;41.38;101751.06;5053246;28;20021;-71
2023/05/05 02:27:08;;;;;;;153.10;57.92;;;;;;;17.87;40.90;101741.28;5044782;28;20501;-70
2023/05/05 02:29:38;;;;;;;151.15;57.28;;;;;;;17.86;40.95;101742.19;5035319;28;20093;-70
2023/05/05 02:32:08;;;;;;;138.52;55.75;;;;;;;17.85;40.89;101738.69;5052359;28;20025;-72
2023/05/05 02:34:36;;;;;;;142.43;56.35;;;;;;;17.86;41.01;101742.19;5050276;28;20044;-71
2023/05/05 02:37:04;;;;;;;152.25;57.97;;;;;;;17.85;40.98;101736.06;5032722;28;20075;-72
2023/05/05 02:39:31;;;;;;;148.90;57.58;;;;;;;17.85;40.94;101743.13;5034122;28;20021;-71
2023/05/05 02:41:58;;;;;;;151.52;57.80;;;;;;;17.85;41.03;101740.50;5049838;28;20036;-71
2023/05/05 02:44:24;;;;;;;154.43;58.42;;;;;;;17.84;41.20;101734.31;5048872;28;20048;-71
2023/05/05 02:46:50;;;;;;;150.07;59.20;;;;;;;17.84;41.37;101738.75;5034228;28;20093;-72
2023/05/05 02:49:16;;;;;;;143.35;58.40;;;;;;;17.83;40.83;101740.53;5037300;28;20492;-71
2023/05/05 02:51:41;;;;;;;140.27;56.72;;;;;;;17.83;41.21;101742.31;5053535;28;20071;-71
2023/05/05 02:54:06;;;;;;;166.25;60.95;;;;;;;17.83;41.15;101734.38;5053290;28;20119;-72
2023/05/05 02:56:38;;;;;;;152.90;58.33;;;;;;;17.83;41.64;101726.44;5051773;28;20041;-71
2023/05/05 02:59:21;;;;;;;146.98;58.05;;;;;;;17.82;41.29;101724.72;5053253;28;20029;-71
2023/05/05 03:02:02;;;;;;;147.90;58.47;;;;;;;17.82;41.04;101730.00;5051438;28;20500;-70
2023/05/05 03:04:37;;;;;;;146.63;58.05;;;;;;;17.80;41.43;101731.84;5035153;28;20409;-71
2023/05/05 03:07:09;;;;;;;147.00;57.83;;;;;;;17.78;41.31;101723.06;5050952;28;20040;-71
2023/05/05 03:09:56;;;;;;;143.27;57.22;;;;;;;17.80;41.15;101734.47;5033248;28;20116;-70
2023/05/05 03:12:26;;;;;;;146.82;58.67;;;;;;;17.80;41.33;101729.19;5050208;28;20032;-72
2023/05/05 03:14:53;;;;;;;153.55;68.93;;;;;;;17.78;41.23;101721.31;5050000;28;20052;-72
2023/05/05 03:17:19;;;;;;;147.73;58.53;;;;;;;17.80;41.34;101723.91;5050892;28;20033;-72
2023/05/05 03:19:45;;;;;;;144.25;57.08;;;;;;;17.79;41.17;101719.53;5050587;28;20035;-72
2023/05/05 03:22:10;;;;;;;141.27;56.55;;;;;;;17.79;41.28;101714.25;5051916;28;20033;-72
2023/05/05 03:24:36;;;;;;;147.55;57.65;;;;;;;17.78;41.29;101708.09;5050929;28;20087;-73
2023/05/05 03:27:01;;;;;;;148.63;57.67;;;;;;;17.77;41.26;101706.38;5051553;28;20041;-72
2023/05/05 03:29:28;;;;;;;143.18;58.45;;;;;;;17.79;41.25;101708.94;5045051;28;20037;-72
2023/05/05 03:31:53;;;;;;;138.88;56.10;;;;;;;17.78;41.08;101696.66;5039004;28;20024;-72
2023/05/05 03:34:19;;;;;;;179.40;61.97;;;;;;;17.77;41.45;101705.50;5029503;28;20392;-72
2023/05/05 03:36:44;;;;;;;152.38;59.08;;;;;;;17.77;41.68;101700.22;5050199;28;20027;-72
2023/05/05 03:39:09;;;;;;;143.52;57.53;;;;;;;17.79;41.07;101703.66;5051176;28;20022;-72
2023/05/05 03:41:35;;;;;;;148.10;58.67;;;;;;;17.77;40.90;101706.38;5049934;28;20090;-71
2023/05/05 03:44:00;;;;;;;145.85;58.25;;;;;;;17.78;41.03;101699.28;5052042;28;20036;-72
2023/05/05 03:46:25;;;;;;;145.13;58.67;;;;;;;17.79;41.41;101707.16;5048850;28;20053;-72
2023/05/05 03:48:51;;;;;;;147.63;58.38;;;;;;;17.78;41.51;101713.38;5051490;28;20024;-71
2023/05/05 03:51:16;;;;;;;148.57;59.65;;;;;;;17.78;41.28;101712.50;5049525;28;20048;-72
2023/05/05 03:53:42;;;;;;;149.07;58.33;;;;;;;17.79;41.05;101708.94;5048728;28;20459;-71
2023/05/05 03:56:07;;;;;;;153.57;58.38;;;;;;;17.79;41.11;101701.03;5048558;28;20078;-71
2023/05/05 03:58:32;;;;;;;144.25;58.25;;;;;;;17.80;41.27;101705.41;5049770;28;20450;-72
2023/05/05 04:00:58;;;;;;;152.25;59.75;;;;;;;17.80;41.28;101710.69;5049651;28;20061;-72
2023/05/05 04:03:23;;;;;;;147.38;58.30;;;;;;;17.80;41.40;101705.41;5051575;28;20059;-71
2023/05/05 04:05:48;;;;;;;148.95;59.20;;;;;;;17.79;41.27;101703.66;5049183;28;20025;-72
2023/05/05 04:08:14;;;;;;;153.15;60.03;;;;;;;17.80;41.01;101706.25;5050656;28;20043;-72
2023/05/05 04:10:39;;;;;;;145.27;57.92;;;;;;;17.81;41.11;101696.56;5049935;28;20028;-72
2023/05/05 04:13:05;;;;;;;151.23;59.78;;;;;;;17.82;41.57;101690.34;5050235;28;20032;-72
2023/05/05 04:15:31;;;;;;;144.93;58.13;;;;;;;17.83;41.32;101694.72;5032130;28;20063;-72
2023/05/05 04:17:56;;;;;;;153.07;60.60;;;;;;;17.83;41.30;101698.25;5047392;28;20041;-72
2023/05/05 04:20:21;;;;;;;152.57;60.15;;;;;;;17.86;41.05;101705.19;5053390;28;20112;-72
2023/05/05 04:22:47;;;;;;;147.02;59.17;;;;;;;17.88;40.97;101703.38;5048605;28;20045;-72
2023/05/05 04:25:12;;;;;;;145.70;58.55;;;;;;;17.90;41.12;101701.56;5031325;28;20144;-72
2023/05/05 04:27:37;;;;;;;147.48;58.80;;;;;;;17.92;41.17;101693.63;5048327;28;20052;-72
2023/05/05 04:30:03;;;;;;;141.80;57.70;;;;;;;17.94;40.56;101705.00;5038505;28;20020;-71
2023/05/05 04:32:28;;;;;;;152.55;59.92;;;;;;;17.97;40.64;101695.22;5049428;28;20068;-71
2023/05/05 04:34:54;;;;;;;148.50;58.97;;;;;;;17.94;40.99;101692.66;5049400;28;20435;-72
2023/05/05 04:37:19;;;;;;;146.60;59.28;;;;;;;17.97;40.40;101697.84;5031210;28;20024;-72
2023/05/05 04:39:45;;;;;;;142.18;61.58;;;;;;;17.97;40.52;101694.34;5038001;28;20037;-72
2023/05/05 04:42:10;;;;;;;143.35;58.35;;;;;;;17.99;40.85;101698.66;5049139;28;20020;-71
2023/05/05 04:44:36;;;;;;;142.27;58.20;;;;;;;18.01;40.84;101693.31;5050068;28;20036;-72
2023/05/05 04:47:01;;;;;;;159.30;60.05;;;;;;;18.01;40.92;101703.91;5047764;28;20065;-72
2023/05/05 04:49:30;;;;;;;146.52;58.65;;;;;;;18.02;40.98;101698.56;5037273;28;20044;-72
2023/05/05 04:51:55;;;;;;;149.32;59.35;;;;;;;18.03;40.62;101708.22;5045569;28;20043;-72
2023/05/05 04:54:21;;;;;;;158.80;59.42;;;;;;;18.04;40.81;101704.66;5048908;28;20033;-71
2023/05/05 04:56:46;;;;;;;145.32;59.35;;;;;;;18.07;40.37;101715.16;5049143;28;20028;-72
2023/05/05 04:59:12;;;;;;;144.93;59.33;;;;;;;18.10;41.01;101713.34;5049292;28;20025;-71
2023/05/05 05:01:37;;;;;;;152.05;60.13;;;;;;;18.11;40.74;101718.56;5049419;28;20021;-72
2023/05/05 05:04:03;;;;;;;147.27;59.78;;;;;;;18.14;40.49;101715.81;5031493;28;20482;-72
2023/05/05 05:06:29;;;;;;;145.30;59.00;;;;;;;18.16;39.96;101715.75;5050241;28;20047;-72
2023/05/05 05:08:54;;;;;;;150.10;61.10;;;;;;;18.19;40.78;101705.13;5051623;28;20454;-71
2023/05/05 05:11:20;;;;;;;148.55;61.47;;;;;;;18.22;40.53;101699.72;5035374;28;20052;-72
2023/05/05 05:13:46;;;;;;;138.75;60.63;;;;;;;18.26;40.14;101688.13;5052862;28;20435;-72
2023/05/05 05:16:11;;;;;;;147.05;61.70;;;;;;;18.31;39.62;101696.78;5053196;28;20029;-72
2023/05/05 05:18:37;;;;;;;149.73;62.03;;;;;;;18.37;40.16;101688.63;5035061;28;20025;-72
2023/05/05 05:21:02;;;;;;;145.10;62.10;;;;;;;18.42;39.89;101688.50;5051560;28;20033;-72
2023/05/05 05:23:27;;;;;;;148.05;61.92;;;;;;;18.46;39.68;101694.53;5063387;28;20046;-72
2023/05/05 05:25:53;;;;;;;149.35;63.65;;;;;;;18.49;39.62;101695.28;5051508;28;20126;-72
2023/05/05 05:28:18;;;;;;;152.80;63.35;;;;;;;18.50;39.77;101688.22;5051898;28;20445;-72
2023/05/05 05:30:44;;;;;;;157.88;64.55;;;;;;;18.52;39.72;101683.75;5050070;28;20044;-71
2023/05/05 05:33:09;;;;;;;149.60;63.85;;;;;;;18.51;39.74;101688.16;5034152;28;20028;-72
2023/05/05 05:35:34;;;;;;;147.93;62.25;;;;;;;18.53;39.88;101690.78;5032731;28;20065;-72
2023/05/05 05:38:00;;;;;;;148.25;61.72;;;;;;;18.55;39.51;101689.78;5033053;28;20016;-73
2023/05/05 05:40:25;;;;;;;161.85;64.28;;;;;;;18.59;39.64;101698.50;5049985;28;20021;-73
2023/05/05 05:42:50;;;;;;;148.18;61.92;;;;;;;18.63;39.83;101697.47;5049080;28;20044;-73
2023/05/05 05:45:16;;;;;;;145.55;62.00;;;;;;;18.65;39.25;101706.25;5033970;28;20020;-72
2023/05/05 05:47:41;;;;;;;151.23;65.03;;;;;;;18.66;39.26;101705.28;5050988;28;20036;-73
2023/05/05 05:50:07;;;;;;;145.73;62.88;;;;;;;18.66;39.19;101694.72;5051611;28;20032;-72
2023/05/05 05:52:34;;;;;;;151.15;62.63;;;;;;;18.67;39.28;101701.75;5052807;28;20024;-71
2023/05/05 05:55:00;;;;;;;145.25;62.50;;;;;;;18.71;39.42;101713.09;5036133;28;20445;-72
2023/05/05 05:57:26;;;;;;;155.57;63.55;;;;;;;18.72;39.66;101701.59;5048537;28;20078;-71
2023/05/05 05:59:52;;;;;;;153.68;64.90;;;;;;;18.73;39.47;101706.84;5050503;28;20109;-71
2023/05/05 06:02:18;;;;;;;149.75;62.83;;;;;;;18.78;39.68;101703.16;5048943;28;20027;-72
2023/05/05 06:04:43;;;;;;;145.63;61.42;;;;;;;18.85;39.55;101702.03;5050992;28;20107;-72
2023/05/05 06:07:08;;;;;;;148.95;62.05;;;;;;;19.03;38.67;101698.78;5050191;28;20029;-71
2023/05/05 06:09:34;;;;;;;145.68;61.97;;;;;;;19.29;38.58;101693.44;5051823;28;20017;-71
2023/05/05 06:11:59;;;;;;;145.32;62.55;;;;;;;19.58;38.30;101698.50;5049208;28;20035;-72
2023/05/05 06:14:25;;;;;;;150.68;65.43;;;;;;;19.99;37.22;101692.53;5049341;28;20029;-71
2023/05/05 06:16:51;;;;;;;155.23;64.72;;;;;;;20.38;36.33;101691.84;5051885;28;20025;-72
2023/05/05 06:19:16;;;;;;;183.23;69.68;;;;;;;20.49;36.22;101685.22;5048980;28;20477;-71
2023/05/05 06:21:42;;;;;;;151.95;64.10;;;;;;;20.33;36.76;101682.31;5046242;28;20032;-72
2023/05/05 06:24:07;;;;;;;161.43;66.47;;;;;;;20.17;36.47;101687.41;5049957;28;20028;-72
2023/05/05 06:26:32;;;;;;;153.38;67.68;;;;;;;20.20;36.98;101692.59;5039023;28;20118;-72
2023/05/05 06:28:58;;;;;;;156.90;65.68;;;;;;;20.51;36.34;101678.06;5052759;28;20033;-72
2023/05/05 06:31:23;;;;;;;150.13;63.40;;;;;;;20.91;35.50;101679.00;5051889;28;20040;-71
2023/05/05 06:33:49;;;;;;;151.90;64.70;;;;;;;21.21;34.92;101679.41;5048312;28;20036;-71
2023/05/05 06:36:14;;;;;;;147.15;62.08;;;;;;;21.57;34.26;101665.41;5039302;28;20555;-72
2023/05/05 06:38:40;;;;;;;150.38;62.45;;;;;;;21.90;33.74;101659.41;5034732;28;20112;-71
2023/05/05 06:41:05;;;;;;;154.02;64.55;;;;;;;22.00;33.49;101662.47;5052694;28;20111;-71
2023/05/05 06:43:30;;;;;;;154.07;65.50;;;;;;;22.10;32.99;101660.22;5049714;28;20452;-72
2023/05/05 06:45:56;;;;;;;156.23;66.55;;;;;;;22.33;32.70;101653.72;5054358;28;20020;-72
2023/05/05 06:48:21;;;;;;;156.63;64.93;;;;;;;22.54;32.14;101662.47;5045986;28;20032;-72
2023/05/05 06:50:47;;;;;;;145.13;61.70;;;;;;;22.87;31.69;101668.78;5050901;28;20469;-71
2023/05/05 06:53:12;;;;;;;157.38;65.75;;;;;;;23.03;31.41;101664.38;5051547;28;20094;-72
2023/05/05 06:55:38;;;;;;;147.95;63.33;;;;;;;22.88;31.79;101657.19;5052434;28;20478;-71
2023/05/05 06:58:04;;;;;;;152.95;65.85;;;;;;;22.84;31.50;101667.13;5051108;28;20397;-72
2023/05/05 07:00:29;;;;;;;151.75;64.78;;;;;;;22.82;32.24;101654.84;5049473;28;20024;-72
2023/05/05 07:02:54;;;;;;;148.15;63.42;;;;;;;22.06;32.83;101661.28;5035269;28;20442;-72
2023/05/05 07:05:20;;;;;;;146.13;63.33;;;;;;;21.43;34.19;101674.00;5047939;28;20035;-71
2023/05/05 07:07:51;;;;;;;156.50;65.53;;;;;;;20.99;34.68;101674.22;5048511;28;20138;-73
2023/05/05 07:10:16;;;;;;;153.02;65.45;;;;;;;20.73;35.48;101692.16;5049862;28;20449;-72
2023/05/05 07:12:42;;;;;;;155.65;65.93;;;;;;;20.53;36.12;101687.69;5051620;28;20033;-71
2023/05/05 07:15:08;;;;;;;157.65;64.95;;;;;;;20.38;36.35;101688.31;5048439;28;20029;-71
2023/05/05 07:17:33;;;;;;;151.93;64.43;;;;;;;20.29;37.07;101696.66;5042665;28;20060;-71
2023/05/05 07:19:58;;;;;;;147.63;62.75;;;;;;;20.20;36.87;101679.34;5045698;28;20018;-71
2023/05/05 07:22:23;;;;;;;156.13;65.40;;;;;;;20.13;36.62;101691.13;5039375;28;20041;-71
2023/05/05 07:24:52;;;;;;;152.70;63.30;;;;;;;20.02;37.34;101686.25;5045217;28;20389;-72
2023/05/05 07:27:17;;;;;;;152.88;64.43;;;;;;;19.96;37.61;101687.38;5043139;28;20029;-71
2023/05/05 07:29:42;;;;;;;151.13;64.63;;;;;;;20.00;37.64;101704.88;5049665;28;20375;-72
2023/05/05 07:32:08;;;;;;;162.95;64.95;;;;;;;19.99;37.67;101708.44;5032751;28;20031;-72
2023/05/05 07:34:35;;;;;;;172.13;66.18;;;;;;;20.01;37.39;101717.19;5050501;28;20033;-72
2023/05/05 07:37:01;;;;;;;153.88;63.22;;;;;;;19.98;37.17;101721.78;5071641;22;20063;-70
2023/05/05 07:39:26;;;;;;;151.45;61.28;;;;;;;20.01;37.10;101722.50;5049122;28;20393;-70
2023/05/05 07:41:51;;;;;;;144.32;60.72;;;;;;;19.99;37.42;101719.06;5047902;28;20537;-71
2023/05/05 07:44:17;;;;;;;153.93;62.88;;;;;;;19.99;37.05;101732.31;5036689;28;20247;-69
2023/05/05 07:46:42;;;;;;;152.82;62.50;;;;;;;19.99;37.22;101731.44;5047608;28;20028;-69
2023/05/05 07:49:07;;;;;;;151.07;63.33;;;;;;;19.96;36.67;101723.59;5041419;28;20486;-70
2023/05/05 07:51:33;;;;;;;155.95;62.65;;;;;;;19.95;36.93;101728.06;5039870;28;20497;-70
2023/05/05 07:53:58;;;;;;;152.35;62.33;;;;;;;19.92;36.75;101726.38;5045794;28;20025;-70
2023/05/05 07:56:23;;;;;;;153.25;63.00;;;;;;;19.96;37.15;101735.09;5024400;28;20021;-68
2023/05/05 07:58:49;;;;;;;152.48;61.13;;;;;;;19.99;36.75;101737.63;5044120;28;20437;-69
2023/05/05 08:01:14;;;;;;;147.90;60.17;;;;;;;20.01;36.61;101743.72;5045614;28;20119;-69
2023/05/05 08:03:40;;;;;;;149.98;61.92;;;;;;;20.05;36.69;101734.72;5042586;28;20116;-68
2023/05/05 08:06:08;;;;;;;144.43;59.55;;;;;;;20.06;36.54;101736.44;5040603;28;20475;-69
2023/05/05 08:08:33;;;;;;;141.30;58.95;;;;;;;20.07;36.38;101732.88;5042601;28;20036;-69
2023/05/05 08:11:00;;;;;;;148.93;60.25;;;;;;;20.12;36.70;101740.63;5045686;28;20021;-69
2023/05/05 08:13:25;;;;;;;160.50;62.88;;;;;;;20.16;36.91;101746.69;5048106;28;20053;-71
2023/05/05 08:15:51;;;;;;;147.43;61.20;;;;;;;20.25;36.60;101743.69;5050861;28;20064;-72
2023/05/05 08:18:17;;;;;;;146.15;60.47;;;;;;;20.36;36.58;101748.56;5036827;28;20013;-69
2023/05/05 08:20:43;;;;;;;144.98;60.95;;;;;;;20.43;36.30;101744.72;5055635;28;20028;-71
2023/05/05 08:23:08;;;;;;;143.48;61.42;;;;;;;20.69;36.07;101748.97;5052854;28;20434;-69
2023/05/05 08:25:33;;;;;;;145.50;60.35;;;;;;;20.93;35.58;101752.38;5053318;28;20056;-69
2023/05/05 08:27:59;;;;;;;152.75;62.10;;;;;;;21.23;34.81;101745.78;5054023;28;20429;-70
2023/05/05 08:30:24;;;;;;;144.93;60.90;;;;;;;21.38;34.68;101734.47;5056213;28;20033;-71
2023/05/05 08:32:49;;;;;;;144.63;61.42;;;;;;;21.38;34.41;101745.09;5058104;28;20044;-69
2023/05/05 08:35:15;;;;;;;145.55;61.03;;;;;;;21.42;34.65;101729.88;5048551;28;20025;-70
2023/05/05 08:37:40;;;;;;;145.98;61.85;;;;;;;21.46;34.43;101718.19;5061049;28;20512;-70
2023/05/05 08:40:06;;;;;;;146.82;63.65;;;;;;;21.41;34.26;101713.06;5038077;28;20091;-71
2023/05/05 08:42:32;;;;;;;147.30;61.92;;;;;;;21.24;34.39;101719.16;5069588;28;20429;-72
2023/05/05 08:44:58;;;;;;;150.27;63.90;;;;;;;20.98;35.01;101712.31;5040814;28;20056;-71
2023/05/05 08:47:23;;;;;;;155.68;63.63;;;;;;;20.81;35.40;101713.06;5066952;28;20028;-71
2023/05/05 08:49:51;;;;;;;160.20;65.28;;;;;;;20.65;35.78;101704.84;5061960;28;20029;-72
2023/05/05 08:52:17;;;;;;;164.13;65.05;;;;;;;20.54;35.90;101699.16;5063462;28;20040;-70
2023/05/05 08:54:50;;;;;;;156.10;63.15;;;;;;;20.51;35.87;101702.78;5070086;28;20051;-75
2023/05/05 08:57:18;;;;;;;154.02;63.03;;;;;;;20.55;36.23;101695.56;5056461;28;20096;-75
2023/05/05 08:59:44;;;;;;;152.32;63.33;;;;;;;20.52;36.18;101690.38;5036946;28;20218;-77
2023/05/05 09:02:10;;;;;;;158.38;63.85;;;;;;;20.52;36.07;101693.91;5052335;28;20025;-77
2023/05/05 09:04:36;;;;;;;152.10;63.13;;;;;;;20.58;35.81;101682.16;5042160;28;20017;-77
2023/05/05 09:07:01;;;;;;;155.95;64.90;;;;;;;20.60;35.63;101693.56;5059364;28;20028;-76
2023/05/05 09:09:28;;;;;;;153.57;65.13;;;;;;;20.53;35.76;101697.41;5046654;28;20108;-77
2023/05/05 09:11:54;;;;;;;152.23;65.35;;;;;;;20.51;36.33;101686.88;5036269;28;20406;-76
2023/05/05 09:14:19;;;;;;;161.07;64.40;;;;;;;20.43;36.39;101681.03;5037699;28;20032;-77
2023/05/05 09:16:45;;;;;;;155.27;64.18;;;;;;;20.44;36.10;101677.44;5043744;28;20024;-76
2023/05/05 09:19:10;;;;;;;149.18;62.85;;;;;;;20.39;36.70;101674.97;5066721;28;20055;-77
2023/05/05 09:21:39;;;;;;;148.23;62.55;;;;;;;20.35;36.43;101678.69;5053846;28;20024;-75
2023/05/05 09:24:09;;;;;;;156.60;63.55;;;;;;;20.35;36.60;101681.34;5052112;28;20111;-77
2023/05/05 09:26:43;;;;;;;155.80;63.78;;;;;;;20.35;36.46;101684.00;5037519;28;20033;-77
2023/05/05 09:29:09;;;;;;;152.00;64.03;;;;;;;20.32;36.58;101673.50;5040369;28;20028;-78
2023/05/05 09:31:35;;;;;;;154.57;63.58;;;;;;;20.26;36.47;101669.34;5039261;28;20119;-79
2023/05/05 09:34:02;;;;;;;151.65;63.45;;;;;;;20.20;36.72;101663.41;5056177;28;20047;-76
2023/05/05 09:36:46;;;;;;;141.52;61.35;;;;;;;20.13;37.19;101661.94;5039341;28;20016;-76
2023/05/05 09:39:13;;;;;;;142.90;61.75;;;;;;;20.04;37.45;101663.16;5037210;28;20041;-77
2023/05/05 09:41:39;;;;;;;147.52;62.05;;;;;;;19.96;37.64;101654.66;5053983;28;20017;-77
2023/05/05 09:44:05;;;;;;;145.88;63.22;;;;;;;19.87;37.10;101663.88;5053218;28;20020;-78
2023/05/05 09:46:31;;;;;;;146.68;62.22;;;;;;;19.79;37.59;101663.28;5040530;28;20029;-78
2023/05/05 09:49:11;;;;;;;145.52;63.92;;;;;;;19.74;37.91;101666.97;5063816;28;20491;-76
2023/05/05 09:51:36;;;;;;;146.52;61.60;;;;;;;19.71;37.56;101659.13;5036777;28;20032;-76
2023/05/05 09:54:01;;;;;;;146.70;61.50;;;;;;;19.65;37.66;101655.88;5052622;28;20020;-76
2023/05/05 09:56:38;;;;;;;142.25;61.13;;;;;;;19.62;38.06;101640.06;5035974;28;20103;-79
2023/05/05 09:59:10;;;;;;;136.63;60.95;;;;;;;19.57;37.70;101642.91;5055332;28;20402;-76
2023/05/05 10:01:36;;;;;;;144.75;62.38;;;;;;;19.54;38.41;101646.53;5056947;28;20025;-79
2023/05/05 10:04:02;;;;;;;148.60;62.63;;;;;;;19.56;38.17;101651.78;5039584;28;20052;-78
2023/05/05 10:06:42;;;;;;;152.57;62.28;;;;;;;19.61;37.89;101638.38;5057550;28;20067;-78
2023/05/05 10:09:07;;;;;;;143.23;61.22;;;;;;;19.71;37.77;101637.91;5057265;28;20025;-78
2023/05/05 10:11:33;;;;;;;146.93;62.22;;;;;;;19.85;37.89;101645.38;5058022;28;20535;-78
2023/05/05 10:13:59;;;;;;;143.50;61.50;;;;;;;20.03;37.27;101648.22;5038777;28;20051;-76
2023/05/05 10:16:26;;;;;;;148.60;62.28;;;;;;;20.04;36.97;101637.53;5041671;28;20025;-79
2023/05/05 10:18:51;;;;;;;149.93;62.70;;;;;;;20.05;37.61;101652.50;5048177;28;20044;-78
2023/05/05 10:21:20;;;;;;;147.13;61.53;;;;;;;20.05;36.96;101644.53;5053196;28;20025;-76
2023/05/05 10:23:56;;;;;;;147.55;61.90;;;;;;;20.04;37.04;101642.84;5077874;28;20027;-76
2023/05/05 10:26:22;;;;;;;146.80;61.10;;;;;;;20.07;37.39;101658.63;5062650;28;20013;-75
2023/05/05 10:28:54;;;;;;;146.75;60.83;;;;;;;20.08;37.11;101652.41;5077037;28;20067;-76
2023/05/05 10:31:32;;;;;;;144.25;60.65;;;;;;;20.15;36.97;101662.75;5069927;28;20080;-77
2023/05/05 10:34:30;;;;;;;144.60;60.30;;;;;;;20.22;36.73;101650.94;5053335;28;20159;-76
2023/05/05 10:36:59;;;;;;;150.85;61.47;;;;;;;20.26;37.08;101660.53;5044924;28;20033;-79
2023/05/05 10:39:25;;;;;;;147.60;59.65;;;;;;;20.26;36.79;101664.03;5035490;28;20037;-76
2023/05/05 10:41:50;;;;;;;149.73;61.78;;;;;;;20.24;36.92;101665.00;5052729;28;20029;-77
2023/05/05 10:44:16;;;;;;;164.43;65.18;;;;;;;20.22;36.43;101662.44;5050715;28;20055;-77
2023/05/05 10:46:41;;;;;;;144.85;61.10;;;;;;;20.20;36.70;101668.72;5035710;28;20478;-78
2023/05/05 10:49:47;;;;;;;150.20;61.20;;;;;;;20.22;36.94;101669.50;5051064;28;20044;-77
2023/05/05 10:52:40;;;;;;;139.85;59.55;;;;;;;20.17;36.88;101674.16;5048602;28;20139;-77
2023/05/05 10:55:20;;;;;;;143.65;61.08;;;;;;;20.14;36.64;101669.84;5050368;28;20043;-77
2023/05/05 10:57:51;;;;;;;148.13;61.03;;;;;;;20.16;36.52;101667.13;5052972;28;20017;-76
2023/05/05 11:00:37;;;;;;;157.75;61.90;;;;;;;20.10;36.66;101660.28;5053401;28;20456;-76
2023/05/05 11:03:15;;;;;;;141.13;59.90;;;;;;;20.06;37.19;101664.84;5042496;28;20040;-76